sensor_id;sensor_type;location;lat;lon;timestamp;P1;durP1;ratioP1;P2;durP2;ratioP2
17854;SDS011;9053;53.358;6.382;2023-09-19T00:00:47;4.05;;;1.35;;
17854;SDS011;9053;53.358;6.382;2023-09-19T00:03:18;4.50;;;1.38;;
17854;SDS011;9053;53.358;6.382;2023-09-19T00:05:49;3.15;;;1.33;;
17854;SDS011;9053;53.358;6.382;2023-09-19T00:08:19;3.25;;;1.40;;
17854;SDS011;9053;53.358;6.382;2023-09-19T00:10:50;3.22;;;1.40;;
17854;SDS011;9053;53.358;6.382;2023-09-19T00:13:23;6.13;;;1.60;;
17854;SDS011;9053;53.358;6.382;2023-09-19T00:15:58;6.07;;;1.50;;
17854;SDS011;9053;53.358;6.382;2023-09-19T00:18:32;5.32;;;1.58;;
17854;SDS011;9053;53.358;6.382;2023-09-19T00:21:02;6.03;;;1.48;;
17854;SDS011;9053;53.358;6.382;2023-09-19T00:23:34;3.22;;;1.70;;
17854;SDS011;9053;53.358;6.382;2023-09-19T00:26:04;6.72;;;1.60;;
17854;SDS011;9053;53.358;6.382;2023-09-19T00:28:37;6.35;;;1.52;;
17854;SDS011;9053;53.358;6.382;2023-09-19T00:31:07;5.20;;;1.75;;
17854;SDS011;9053;53.358;6.382;2023-09-19T00:33:41;5.22;;;1.60;;
17854;SDS011;9053;53.358;6.382;2023-09-19T00:36:15;3.53;;;1.63;;
17854;SDS011;9053;53.358;6.382;2023-09-19T00:38:45;4.05;;;1.73;;
17854;SDS011;9053;53.358;6.382;2023-09-19T00:41:17;4.53;;;1.70;;
17854;SDS011;9053;53.358;6.382;2023-09-19T00:43:51;6.18;;;1.85;;
17854;SDS011;9053;53.358;6.382;2023-09-19T00:46:21;6.05;;;1.80;;
17854;SDS011;9053;53.358;6.382;2023-09-19T00:49:01;5.40;;;2.30;;
17854;SDS011;9053;53.358;6.382;2023-09-19T00:51:31;6.57;;;2.45;;
17854;SDS011;9053;53.358;6.382;2023-09-19T00:54:02;4.95;;;2.00;;
17854;SDS011;9053;53.358;6.382;2023-09-19T00:59:19;5.80;;;1.90;;
17854;SDS011;9053;53.358;6.382;2023-09-19T01:01:49;4.72;;;2.03;;
17854;SDS011;9053;53.358;6.382;2023-09-19T01:04:23;4.35;;;1.90;;
17854;SDS011;9053;53.358;6.382;2023-09-19T01:06:57;4.90;;;1.88;;
17854;SDS011;9053;53.358;6.382;2023-09-19T01:09:38;6.35;;;2.17;;
17854;SDS011;9053;53.358;6.382;2023-09-19T01:12:09;8.82;;;2.30;;
17854;SDS011;9053;53.358;6.382;2023-09-19T01:14:52;6.13;;;2.10;;
17854;SDS011;9053;53.358;6.382;2023-09-19T01:17:42;4.40;;;1.80;;
17854;SDS011;9053;53.358;6.382;2023-09-19T01:20:27;4.78;;;1.88;;
17854;SDS011;9053;53.358;6.382;2023-09-19T01:23:15;5.95;;;1.83;;
17854;SDS011;9053;53.358;6.382;2023-09-19T01:26:06;4.22;;;2.00;;
17854;SDS011;9053;53.358;6.382;2023-09-19T01:28:52;5.63;;;1.98;;
17854;SDS011;9053;53.358;6.382;2023-09-19T01:31:32;4.68;;;1.73;;
17854;SDS011;9053;53.358;6.382;2023-09-19T01:34:09;3.50;;;1.67;;
17854;SDS011;9053;53.358;6.382;2023-09-19T01:36:44;4.78;;;1.77;;
17854;SDS011;9053;53.358;6.382;2023-09-19T01:39:18;3.60;;;1.73;;
17854;SDS011;9053;53.358;6.382;2023-09-19T01:41:54;4.20;;;1.70;;
17854;SDS011;9053;53.358;6.382;2023-09-19T01:44:51;5.07;;;1.90;;
17854;SDS011;9053;53.358;6.382;2023-09-19T01:47:33;4.38;;;1.63;;
17854;SDS011;9053;53.358;6.382;2023-09-19T01:50:07;4.03;;;1.60;;
17854;SDS011;9053;53.358;6.382;2023-09-19T01:52:57;9.80;;;2.28;;
17854;SDS011;9053;53.358;6.382;2023-09-19T01:55:34;4.35;;;2.00;;
17854;SDS011;9053;53.358;6.382;2023-09-19T01:58:16;5.78;;;2.40;;
17854;SDS011;9053;53.358;6.382;2023-09-19T02:01:01;4.05;;;2.00;;
17854;SDS011;9053;53.358;6.382;2023-09-19T02:03:41;3.55;;;1.88;;
17854;SDS011;9053;53.358;6.382;2023-09-19T02:06:13;6.60;;;2.00;;
17854;SDS011;9053;53.358;6.382;2023-09-19T02:08:45;5.18;;;2.42;;
17854;SDS011;9053;53.358;6.382;2023-09-19T02:11:16;4.53;;;2.33;;
17854;SDS011;9053;53.358;6.382;2023-09-19T02:13:56;3.20;;;2.08;;
17854;SDS011;9053;53.358;6.382;2023-09-19T02:16:33;5.30;;;2.00;;
17854;SDS011;9053;53.358;6.382;2023-09-19T02:19:06;7.88;;;2.30;;
17854;SDS011;9053;53.358;6.382;2023-09-19T02:21:36;4.65;;;2.10;;
17854;SDS011;9053;53.358;6.382;2023-09-19T02:24:07;4.95;;;2.03;;
17854;SDS011;9053;53.358;6.382;2023-09-19T02:26:40;6.78;;;2.30;;
17854;SDS011;9053;53.358;6.382;2023-09-19T02:29:11;3.40;;;1.60;;
17854;SDS011;9053;53.358;6.382;2023-09-19T02:31:43;7.22;;;1.90;;
17854;SDS011;9053;53.358;6.382;2023-09-19T02:34:17;5.13;;;1.85;;
17854;SDS011;9053;53.358;6.382;2023-09-19T02:36:51;3.50;;;1.38;;
17854;SDS011;9053;53.358;6.382;2023-09-19T02:39:26;4.35;;;1.83;;
17854;SDS011;9053;53.358;6.382;2023-09-19T02:41:58;3.45;;;1.80;;
17854;SDS011;9053;53.358;6.382;2023-09-19T02:44:29;5.38;;;2.80;;
17854;SDS011;9053;53.358;6.382;2023-09-19T02:46:59;6.95;;;2.63;;
17854;SDS011;9053;53.358;6.382;2023-09-19T02:49:31;3.45;;;2.17;;
17854;SDS011;9053;53.358;6.382;2023-09-19T02:52:02;4.43;;;2.20;;
17854;SDS011;9053;53.358;6.382;2023-09-19T02:54:34;5.90;;;1.95;;
17854;SDS011;9053;53.358;6.382;2023-09-19T02:57:04;6.88;;;2.40;;
17854;SDS011;9053;53.358;6.382;2023-09-19T02:59:34;4.70;;;2.05;;
17854;SDS011;9053;53.358;6.382;2023-09-19T03:02:04;7.70;;;2.38;;
17854;SDS011;9053;53.358;6.382;2023-09-19T03:04:43;6.32;;;2.03;;
17854;SDS011;9053;53.358;6.382;2023-09-19T03:07:17;4.13;;;1.67;;
17854;SDS011;9053;53.358;6.382;2023-09-19T03:09:47;5.45;;;2.00;;
17854;SDS011;9053;53.358;6.382;2023-09-19T03:12:28;4.88;;;2.22;;
17854;SDS011;9053;53.358;6.382;2023-09-19T03:15:01;6.80;;;2.10;;
17854;SDS011;9053;53.358;6.382;2023-09-19T03:17:33;5.78;;;1.67;;
17854;SDS011;9053;53.358;6.382;2023-09-19T03:20:07;4.93;;;1.70;;
17854;SDS011;9053;53.358;6.382;2023-09-19T03:22:39;6.30;;;1.73;;
17854;SDS011;9053;53.358;6.382;2023-09-19T03:25:11;4.18;;;1.80;;
17854;SDS011;9053;53.358;6.382;2023-09-19T03:27:49;5.93;;;2.03;;
17854;SDS011;9053;53.358;6.382;2023-09-19T03:30:20;5.20;;;1.70;;
17854;SDS011;9053;53.358;6.382;2023-09-19T03:32:50;5.25;;;1.65;;
17854;SDS011;9053;53.358;6.382;2023-09-19T03:35:22;3.30;;;1.50;;
17854;SDS011;9053;53.358;6.382;2023-09-19T03:37:52;4.45;;;1.40;;
17854;SDS011;9053;53.358;6.382;2023-09-19T03:40:27;5.47;;;1.50;;
17854;SDS011;9053;53.358;6.382;2023-09-19T03:43:03;3.10;;;1.23;;
17854;SDS011;9053;53.358;6.382;2023-09-19T03:45:33;4.25;;;1.58;;
17854;SDS011;9053;53.358;6.382;2023-09-19T03:48:08;7.90;;;1.73;;
17854;SDS011;9053;53.358;6.382;2023-09-19T03:50:40;4.80;;;1.60;;
17854;SDS011;9053;53.358;6.382;2023-09-19T03:53:10;6.73;;;1.60;;
17854;SDS011;9053;53.358;6.382;2023-09-19T03:55:40;5.22;;;1.70;;
17854;SDS011;9053;53.358;6.382;2023-09-19T03:58:10;5.90;;;1.52;;
17854;SDS011;9053;53.358;6.382;2023-09-19T04:00:58;5.63;;;1.58;;
17854;SDS011;9053;53.358;6.382;2023-09-19T04:03:28;3.47;;;1.33;;
17854;SDS011;9053;53.358;6.382;2023-09-19T04:06:09;6.10;;;1.42;;
17854;SDS011;9053;53.358;6.382;2023-09-19T04:08:39;5.03;;;1.70;;
17854;SDS011;9053;53.358;6.382;2023-09-19T04:11:14;5.50;;;1.90;;
17854;SDS011;9053;53.358;6.382;2023-09-19T04:13:47;6.43;;;1.83;;
17854;SDS011;9053;53.358;6.382;2023-09-19T04:16:17;6.60;;;1.83;;
17854;SDS011;9053;53.358;6.382;2023-09-19T04:18:50;4.97;;;1.40;;
17854;SDS011;9053;53.358;6.382;2023-09-19T04:21:25;4.82;;;1.77;;
17854;SDS011;9053;53.358;6.382;2023-09-19T04:23:58;6.22;;;1.50;;
17854;SDS011;9053;53.358;6.382;2023-09-19T04:26:44;6.00;;;1.97;;
17854;SDS011;9053;53.358;6.382;2023-09-19T04:29:14;5.57;;;1.63;;
17854;SDS011;9053;53.358;6.382;2023-09-19T04:31:48;4.00;;;1.45;;
17854;SDS011;9053;53.358;6.382;2023-09-19T04:34:24;5.95;;;1.73;;
17854;SDS011;9053;53.358;6.382;2023-09-19T04:37:01;5.23;;;1.70;;
17854;SDS011;9053;53.358;6.382;2023-09-19T04:39:33;4.50;;;1.40;;
17854;SDS011;9053;53.358;6.382;2023-09-19T04:42:07;2.88;;;1.45;;
17854;SDS011;9053;53.358;6.382;2023-09-19T04:44:41;5.40;;;1.60;;
17854;SDS011;9053;53.358;6.382;2023-09-19T04:47:11;4.38;;;1.42;;
17854;SDS011;9053;53.358;6.382;2023-09-19T04:49:42;4.82;;;1.60;;
17854;SDS011;9053;53.358;6.382;2023-09-19T04:52:15;4.88;;;1.50;;
17854;SDS011;9053;53.358;6.382;2023-09-19T04:54:46;5.13;;;1.57;;
17854;SDS011;9053;53.358;6.382;2023-09-19T04:57:17;5.55;;;1.70;;
17854;SDS011;9053;53.358;6.382;2023-09-19T04:59:55;4.82;;;1.50;;
17854;SDS011;9053;53.358;6.382;2023-09-19T05:02:24;6.93;;;1.60;;
17854;SDS011;9053;53.358;6.382;2023-09-19T05:04:58;4.32;;;1.23;;
17854;SDS011;9053;53.358;6.382;2023-09-19T05:07:34;4.82;;;1.80;;
17854;SDS011;9053;53.358;6.382;2023-09-19T05:10:08;6.20;;;1.42;;
17854;SDS011;9053;53.358;6.382;2023-09-19T05:12:39;5.90;;;1.50;;
17854;SDS011;9053;53.358;6.382;2023-09-19T05:15:11;4.40;;;1.52;;
17854;SDS011;9053;53.358;6.382;2023-09-19T05:17:47;6.18;;;2.17;;
17854;SDS011;9053;53.358;6.382;2023-09-19T05:20:24;4.70;;;1.52;;
17854;SDS011;9053;53.358;6.382;2023-09-19T05:23:09;5.43;;;1.60;;
17854;SDS011;9053;53.358;6.382;2023-09-19T05:25:41;3.80;;;1.45;;
17854;SDS011;9053;53.358;6.382;2023-09-19T05:28:23;3.28;;;1.33;;
17854;SDS011;9053;53.358;6.382;2023-09-19T05:30:53;3.30;;;1.60;;
17854;SDS011;9053;53.358;6.382;2023-09-19T05:33:24;4.22;;;1.20;;
17854;SDS011;9053;53.358;6.382;2023-09-19T05:35:57;6.05;;;1.70;;
17854;SDS011;9053;53.358;6.382;2023-09-19T05:38:32;4.20;;;1.40;;
17854;SDS011;9053;53.358;6.382;2023-09-19T05:41:02;6.63;;;1.75;;
17854;SDS011;9053;53.358;6.382;2023-09-19T05:43:34;4.88;;;1.60;;
17854;SDS011;9053;53.358;6.382;2023-09-19T05:46:05;5.50;;;1.40;;
17854;SDS011;9053;53.358;6.382;2023-09-19T05:48:36;3.78;;;1.52;;
17854;SDS011;9053;53.358;6.382;2023-09-19T05:51:09;4.95;;;1.40;;
17854;SDS011;9053;53.358;6.382;2023-09-19T05:53:41;4.10;;;1.70;;
17854;SDS011;9053;53.358;6.382;2023-09-19T05:56:15;4.78;;;2.03;;
17854;SDS011;9053;53.358;6.382;2023-09-19T05:58:45;6.13;;;1.60;;
17854;SDS011;9053;53.358;6.382;2023-09-19T06:01:16;6.10;;;1.63;;
17854;SDS011;9053;53.358;6.382;2023-09-19T06:03:51;5.22;;;1.38;;
17854;SDS011;9053;53.358;6.382;2023-09-19T06:06:25;4.47;;;1.38;;
17854;SDS011;9053;53.358;6.382;2023-09-19T06:08:57;7.53;;;1.65;;
17854;SDS011;9053;53.358;6.382;2023-09-19T06:11:27;6.80;;;1.38;;
17854;SDS011;9053;53.358;6.382;2023-09-19T06:13:59;4.43;;;1.60;;
17854;SDS011;9053;53.358;6.382;2023-09-19T06:16:31;6.15;;;1.92;;
17854;SDS011;9053;53.358;6.382;2023-09-19T06:19:10;8.50;;;1.95;;
17854;SDS011;9053;53.358;6.382;2023-09-19T06:21:44;7.85;;;1.85;;
17854;SDS011;9053;53.358;6.382;2023-09-19T06:24:23;8.05;;;1.88;;
17854;SDS011;9053;53.358;6.382;2023-09-19T06:26:57;4.53;;;1.85;;
17854;SDS011;9053;53.358;6.382;2023-09-19T06:29:28;5.47;;;1.70;;
17854;SDS011;9053;53.358;6.382;2023-09-19T06:32:02;6.75;;;2.03;;
17854;SDS011;9053;53.358;6.382;2023-09-19T06:34:41;4.80;;;1.38;;
17854;SDS011;9053;53.358;6.382;2023-09-19T06:37:13;5.13;;;1.80;;
17854;SDS011;9053;53.358;6.382;2023-09-19T06:39:45;10.65;;;1.85;;
17854;SDS011;9053;53.358;6.382;2023-09-19T06:42:17;6.30;;;1.85;;
17854;SDS011;9053;53.358;6.382;2023-09-19T06:44:47;8.35;;;2.03;;
17854;SDS011;9053;53.358;6.382;2023-09-19T06:47:28;4.18;;;1.50;;
17854;SDS011;9053;53.358;6.382;2023-09-19T06:50:02;6.43;;;2.03;;
17854;SDS011;9053;53.358;6.382;2023-09-19T06:52:41;6.97;;;1.63;;
17854;SDS011;9053;53.358;6.382;2023-09-19T06:55:14;5.22;;;1.55;;
17854;SDS011;9053;53.358;6.382;2023-09-19T06:57:47;5.88;;;1.55;;
17854;SDS011;9053;53.358;6.382;2023-09-19T07:00:17;4.80;;;1.60;;
17854;SDS011;9053;53.358;6.382;2023-09-19T07:02:56;5.72;;;1.60;;
17854;SDS011;9053;53.358;6.382;2023-09-19T07:05:34;7.90;;;2.08;;
17854;SDS011;9053;53.358;6.382;2023-09-19T07:08:15;7.30;;;2.13;;
17854;SDS011;9053;53.358;6.382;2023-09-19T07:10:49;5.85;;;1.63;;
17854;SDS011;9053;53.358;6.382;2023-09-19T07:13:25;5.18;;;1.63;;
17854;SDS011;9053;53.358;6.382;2023-09-19T07:15:58;6.53;;;1.85;;
17854;SDS011;9053;53.358;6.382;2023-09-19T07:18:33;5.68;;;1.48;;
17854;SDS011;9053;53.358;6.382;2023-09-19T07:21:04;4.88;;;1.52;;
17854;SDS011;9053;53.358;6.382;2023-09-19T07:23:41;5.18;;;1.45;;
17854;SDS011;9053;53.358;6.382;2023-09-19T07:26:16;4.60;;;1.70;;
17854;SDS011;9053;53.358;6.382;2023-09-19T07:28:46;11.77;;;2.00;;
17854;SDS011;9053;53.358;6.382;2023-09-19T07:31:17;5.00;;;1.52;;
17854;SDS011;9053;53.358;6.382;2023-09-19T07:33:56;5.60;;;1.58;;
17854;SDS011;9053;53.358;6.382;2023-09-19T07:36:26;6.75;;;1.85;;
17854;SDS011;9053;53.358;6.382;2023-09-19T07:39:00;6.53;;;1.50;;
17854;SDS011;9053;53.358;6.382;2023-09-19T07:41:50;8.27;;;1.73;;
17854;SDS011;9053;53.358;6.382;2023-09-19T07:44:23;4.55;;;1.48;;
17854;SDS011;9053;53.358;6.382;2023-09-19T07:46:55;8.98;;;2.15;;
17854;SDS011;9053;53.358;6.382;2023-09-19T07:49:26;5.15;;;1.70;;
17854;SDS011;9053;53.358;6.382;2023-09-19T07:52:17;7.47;;;1.90;;
17854;SDS011;9053;53.358;6.382;2023-09-19T07:54:50;6.88;;;1.70;;
17854;SDS011;9053;53.358;6.382;2023-09-19T07:57:28;5.50;;;1.50;;
17854;SDS011;9053;53.358;6.382;2023-09-19T08:00:04;8.77;;;1.80;;
17854;SDS011;9053;53.358;6.382;2023-09-19T08:02:36;7.05;;;1.60;;
17854;SDS011;9053;53.358;6.382;2023-09-19T08:05:22;5.07;;;1.65;;
17854;SDS011;9053;53.358;6.382;2023-09-19T08:07:54;6.20;;;1.60;;
17854;SDS011;9053;53.358;6.382;2023-09-19T08:10:28;3.58;;;1.58;;
17854;SDS011;9053;53.358;6.382;2023-09-19T08:13:07;5.40;;;1.60;;
17854;SDS011;9053;53.358;6.382;2023-09-19T08:15:42;7.05;;;2.00;;
17854;SDS011;9053;53.358;6.382;2023-09-19T08:18:15;6.97;;;1.70;;
17854;SDS011;9053;53.358;6.382;2023-09-19T08:20:48;9.02;;;1.88;;
17854;SDS011;9053;53.358;6.382;2023-09-19T08:23:20;6.82;;;2.03;;
17854;SDS011;9053;53.358;6.382;2023-09-19T08:25:55;6.75;;;2.10;;
17854;SDS011;9053;53.358;6.382;2023-09-19T08:28:32;9.85;;;2.08;;
17854;SDS011;9053;53.358;6.382;2023-09-19T08:31:07;6.28;;;2.10;;
17854;SDS011;9053;53.358;6.382;2023-09-19T08:33:40;7.25;;;1.98;;
17854;SDS011;9053;53.358;6.382;2023-09-19T08:36:20;5.28;;;1.90;;
17854;SDS011;9053;53.358;6.382;2023-09-19T08:39:02;9.35;;;2.05;;
17854;SDS011;9053;53.358;6.382;2023-09-19T08:41:48;8.60;;;2.50;;
17854;SDS011;9053;53.358;6.382;2023-09-19T08:44:21;7.30;;;2.38;;
17854;SDS011;9053;53.358;6.382;2023-09-19T08:46:54;5.60;;;1.90;;
17854;SDS011;9053;53.358;6.382;2023-09-19T08:49:33;5.43;;;1.90;;
17854;SDS011;9053;53.358;6.382;2023-09-19T08:52:22;5.90;;;1.67;;
17854;SDS011;9053;53.358;6.382;2023-09-19T09:32:53;6.53;;;2.13;;
17854;SDS011;9053;53.358;6.382;2023-09-19T09:43:50;4.78;;;2.00;;
17854;SDS011;9053;53.358;6.382;2023-09-19T09:46:22;7.25;;;2.33;;
17854;SDS011;9053;53.358;6.382;2023-09-19T09:49:06;8.10;;;2.10;;
17854;SDS011;9053;53.358;6.382;2023-09-19T09:52:10;8.07;;;1.83;;
17854;SDS011;9053;53.358;6.382;2023-09-19T09:54:58;6.65;;;1.98;;
17854;SDS011;9053;53.358;6.382;2023-09-19T09:57:34;9.18;;;2.00;;
17854;SDS011;9053;53.358;6.382;2023-09-19T10:00:15;6.90;;;2.10;;
17854;SDS011;9053;53.358;6.382;2023-09-19T10:02:52;7.70;;;2.03;;
17854;SDS011;9053;53.358;6.382;2023-09-19T10:05:25;5.68;;;1.98;;
17854;SDS011;9053;53.358;6.382;2023-09-19T10:08:10;3.63;;;1.40;;
17854;SDS011;9053;53.358;6.382;2023-09-19T10:10:45;6.82;;;2.03;;
17854;SDS011;9053;53.358;6.382;2023-09-19T10:13:38;8.45;;;2.10;;
17854;SDS011;9053;53.358;6.382;2023-09-19T10:16:13;6.32;;;2.28;;
17854;SDS011;9053;53.358;6.382;2023-09-19T10:18:47;9.07;;;2.28;;
17854;SDS011;9053;53.358;6.382;2023-09-19T10:21:25;6.18;;;2.00;;
17854;SDS011;9053;53.358;6.382;2023-09-19T10:23:57;6.20;;;1.73;;
17854;SDS011;9053;53.358;6.382;2023-09-19T10:26:32;6.68;;;2.22;;
17854;SDS011;9053;53.358;6.382;2023-09-19T10:29:04;9.13;;;2.20;;
17854;SDS011;9053;53.358;6.382;2023-09-19T10:31:39;5.78;;;2.08;;
17854;SDS011;9053;53.358;6.382;2023-09-19T10:34:14;8.20;;;2.42;;
17854;SDS011;9053;53.358;6.382;2023-09-19T10:36:45;7.35;;;2.22;;
17854;SDS011;9053;53.358;6.382;2023-09-19T10:39:16;9.52;;;2.40;;
17854;SDS011;9053;53.358;6.382;2023-09-19T10:41:50;8.77;;;2.42;;
17854;SDS011;9053;53.358;6.382;2023-09-19T10:44:25;8.63;;;2.33;;
17854;SDS011;9053;53.358;6.382;2023-09-19T10:46:59;7.63;;;2.55;;
17854;SDS011;9053;53.358;6.382;2023-09-19T10:49:29;8.77;;;2.50;;
17854;SDS011;9053;53.358;6.382;2023-09-19T10:52:01;8.77;;;3.05;;
17854;SDS011;9053;53.358;6.382;2023-09-19T10:54:38;6.38;;;2.08;;
17854;SDS011;9053;53.358;6.382;2023-09-19T10:57:19;5.55;;;2.58;;
17854;SDS011;9053;53.358;6.382;2023-09-19T11:03:18;7.18;;;2.72;;
17854;SDS011;9053;53.358;6.382;2023-09-19T11:06:00;8.70;;;3.15;;
17854;SDS011;9053;53.358;6.382;2023-09-19T11:11:40;8.38;;;2.20;;
17854;SDS011;9053;53.358;6.382;2023-09-19T11:14:30;8.35;;;2.42;;
17854;SDS011;9053;53.358;6.382;2023-09-19T11:20:22;8.43;;;2.60;;
17854;SDS011;9053;53.358;6.382;2023-09-19T11:23:17;6.70;;;2.47;;
17854;SDS011;9053;53.358;6.382;2023-09-19T11:25:49;8.05;;;2.40;;
17854;SDS011;9053;53.358;6.382;2023-09-19T11:28:30;7.38;;;2.10;;
17854;SDS011;9053;53.358;6.382;2023-09-19T11:40:09;5.43;;;2.22;;
17854;SDS011;9053;53.358;6.382;2023-09-19T11:42:50;8.57;;;2.88;;
17854;SDS011;9053;53.358;6.382;2023-09-19T11:48:24;8.80;;;2.83;;
17854;SDS011;9053;53.358;6.382;2023-09-19T11:50:56;4.75;;;2.17;;
17854;SDS011;9053;53.358;6.382;2023-09-19T11:53:34;10.60;;;2.55;;
17854;SDS011;9053;53.358;6.382;2023-09-19T11:56:22;7.63;;;2.63;;
17854;SDS011;9053;53.358;6.382;2023-09-19T11:58:59;6.50;;;2.42;;
17854;SDS011;9053;53.358;6.382;2023-09-19T12:01:55;7.78;;;2.60;;
17854;SDS011;9053;53.358;6.382;2023-09-19T12:04:36;8.75;;;2.40;;
17854;SDS011;9053;53.358;6.382;2023-09-19T12:07:08;6.10;;;2.50;;
17854;SDS011;9053;53.358;6.382;2023-09-19T12:09:43;7.38;;;2.17;;
17854;SDS011;9053;53.358;6.382;2023-09-19T12:12:22;7.30;;;2.53;;
17854;SDS011;9053;53.358;6.382;2023-09-19T12:14:56;6.90;;;2.50;;
17854;SDS011;9053;53.358;6.382;2023-09-19T12:17:37;10.43;;;2.95;;
17854;SDS011;9053;53.358;6.382;2023-09-19T12:20:09;9.00;;;2.42;;
17854;SDS011;9053;53.358;6.382;2023-09-19T12:22:40;11.43;;;2.75;;
17854;SDS011;9053;53.358;6.382;2023-09-19T12:25:13;8.45;;;2.67;;
17854;SDS011;9053;53.358;6.382;2023-09-19T12:27:51;7.00;;;2.58;;
17854;SDS011;9053;53.358;6.382;2023-09-19T12:30:27;6.15;;;2.72;;
17854;SDS011;9053;53.358;6.382;2023-09-19T12:33:07;7.53;;;2.88;;
17854;SDS011;9053;53.358;6.382;2023-09-19T12:35:48;9.55;;;2.83;;
17854;SDS011;9053;53.358;6.382;2023-09-19T12:38:31;9.10;;;2.88;;
17854;SDS011;9053;53.358;6.382;2023-09-19T12:41:04;7.07;;;2.72;;
17854;SDS011;9053;53.358;6.382;2023-09-19T12:43:41;7.15;;;2.40;;
17854;SDS011;9053;53.358;6.382;2023-09-19T12:46:12;8.25;;;2.60;;
17854;SDS011;9053;53.358;6.382;2023-09-19T12:51:54;7.75;;;2.25;;
17854;SDS011;9053;53.358;6.382;2023-09-19T12:54:37;9.00;;;2.45;;
17854;SDS011;9053;53.358;6.382;2023-09-19T12:57:09;7.95;;;2.35;;
17854;SDS011;9053;53.358;6.382;2023-09-19T12:59:57;7.28;;;2.47;;
17854;SDS011;9053;53.358;6.382;2023-09-19T13:02:32;6.80;;;2.20;;
17854;SDS011;9053;53.358;6.382;2023-09-19T13:48:45;4.65;;;1.52;;
17854;SDS011;9053;53.358;6.382;2023-09-19T13:51:17;6.03;;;2.13;;
17854;SDS011;9053;53.358;6.382;2023-09-19T13:53:56;5.57;;;1.80;;
17854;SDS011;9053;53.358;6.382;2023-09-19T13:56:35;5.22;;;2.00;;
17854;SDS011;9053;53.358;6.382;2023-09-19T13:59:13;5.40;;;1.90;;
17854;SDS011;9053;53.358;6.382;2023-09-19T14:01:45;4.95;;;1.80;;
17854;SDS011;9053;53.358;6.382;2023-09-19T14:14:34;4.53;;;1.58;;
17854;SDS011;9053;53.358;6.382;2023-09-19T14:17:22;4.68;;;1.70;;
17854;SDS011;9053;53.358;6.382;2023-09-19T14:23:48;8.43;;;2.00;;
17854;SDS011;9053;53.358;6.382;2023-09-19T14:26:23;5.75;;;1.75;;
17854;SDS011;9053;53.358;6.382;2023-09-19T14:28:53;6.43;;;2.10;;
17854;SDS011;9053;53.358;6.382;2023-09-19T14:31:29;4.85;;;1.95;;
17854;SDS011;9053;53.358;6.382;2023-09-19T14:34:00;6.50;;;2.00;;
17854;SDS011;9053;53.358;6.382;2023-09-19T14:36:33;5.65;;;2.13;;
17854;SDS011;9053;53.358;6.382;2023-09-19T14:39:06;6.18;;;2.25;;
17854;SDS011;9053;53.358;6.382;2023-09-19T14:41:41;5.40;;;2.05;;
17854;SDS011;9053;53.358;6.382;2023-09-19T14:44:12;6.00;;;2.38;;
17854;SDS011;9053;53.358;6.382;2023-09-19T14:46:54;5.45;;;2.03;;
17854;SDS011;9053;53.358;6.382;2023-09-19T14:49:27;5.18;;;1.88;;
17854;SDS011;9053;53.358;6.382;2023-09-19T14:51:57;5.97;;;2.25;;
17854;SDS011;9053;53.358;6.382;2023-09-19T14:54:30;4.18;;;2.10;;
17854;SDS011;9053;53.358;6.382;2023-09-19T14:57:13;5.35;;;2.10;;
17854;SDS011;9053;53.358;6.382;2023-09-19T14:59:45;6.20;;;2.30;;
17854;SDS011;9053;53.358;6.382;2023-09-19T15:02:22;6.53;;;2.22;;
17854;SDS011;9053;53.358;6.382;2023-09-19T15:04:55;3.97;;;2.15;;
17854;SDS011;9053;53.358;6.382;2023-09-19T15:07:29;4.78;;;2.15;;
17854;SDS011;9053;53.358;6.382;2023-09-19T15:10:09;7.22;;;2.10;;
17854;SDS011;9053;53.358;6.382;2023-09-19T15:12:39;6.38;;;2.60;;
17854;SDS011;9053;53.358;6.382;2023-09-19T15:15:10;5.10;;;3.03;;
17854;SDS011;9053;53.358;6.382;2023-09-19T15:17:50;4.90;;;2.20;;
17854;SDS011;9053;53.358;6.382;2023-09-19T15:20:20;6.88;;;2.40;;
17854;SDS011;9053;53.358;6.382;2023-09-19T15:22:56;6.32;;;2.40;;
17854;SDS011;9053;53.358;6.382;2023-09-19T15:25:27;3.33;;;2.00;;
17854;SDS011;9053;53.358;6.382;2023-09-19T15:27:58;6.80;;;2.40;;
17854;SDS011;9053;53.358;6.382;2023-09-19T15:30:58;5.32;;;2.10;;
17854;SDS011;9053;53.358;6.382;2023-09-19T15:33:31;5.97;;;2.33;;
17854;SDS011;9053;53.358;6.382;2023-09-19T15:36:02;4.30;;;2.03;;
17854;SDS011;9053;53.358;6.382;2023-09-19T15:38:55;8.30;;;2.50;;
17854;SDS011;9053;53.358;6.382;2023-09-19T15:41:27;4.25;;;2.00;;
17854;SDS011;9053;53.358;6.382;2023-09-19T15:43:58;5.50;;;2.13;;
17854;SDS011;9053;53.358;6.382;2023-09-19T15:46:28;8.05;;;2.30;;
17854;SDS011;9053;53.358;6.382;2023-09-19T15:49:04;10.15;;;2.33;;
17854;SDS011;9053;53.358;6.382;2023-09-19T15:51:36;7.85;;;3.03;;
17854;SDS011;9053;53.358;6.382;2023-09-19T15:54:08;6.40;;;2.70;;
17854;SDS011;9053;53.358;6.382;2023-09-19T15:56:40;7.00;;;2.40;;
17854;SDS011;9053;53.358;6.382;2023-09-19T15:59:10;5.03;;;2.25;;
17854;SDS011;9053;53.358;6.382;2023-09-19T16:01:42;4.18;;;2.38;;
17854;SDS011;9053;53.358;6.382;2023-09-19T16:04:16;8.30;;;2.60;;
17854;SDS011;9053;53.358;6.382;2023-09-19T16:06:46;5.22;;;2.40;;
17854;SDS011;9053;53.358;6.382;2023-09-19T16:09:16;7.95;;;2.60;;
17854;SDS011;9053;53.358;6.382;2023-09-19T16:11:47;4.47;;;2.53;;
17854;SDS011;9053;53.358;6.382;2023-09-19T16:14:17;6.20;;;3.17;;
17854;SDS011;9053;53.358;6.382;2023-09-19T16:16:47;5.57;;;2.50;;
17854;SDS011;9053;53.358;6.382;2023-09-19T16:19:20;6.65;;;2.40;;
17854;SDS011;9053;53.358;6.382;2023-09-19T16:21:50;4.32;;;2.42;;
17854;SDS011;9053;53.358;6.382;2023-09-19T16:24:20;7.25;;;3.00;;
17854;SDS011;9053;53.358;6.382;2023-09-19T16:26:51;6.45;;;2.22;;
17854;SDS011;9053;53.358;6.382;2023-09-19T16:29:21;7.13;;;2.90;;
17854;SDS011;9053;53.358;6.382;2023-09-19T16:31:51;5.13;;;2.25;;
17854;SDS011;9053;53.358;6.382;2023-09-19T16:34:24;5.68;;;2.08;;
17854;SDS011;9053;53.358;6.382;2023-09-19T16:37:02;6.25;;;2.28;;
17854;SDS011;9053;53.358;6.382;2023-09-19T16:39:35;7.05;;;2.50;;
17854;SDS011;9053;53.358;6.382;2023-09-19T16:42:11;5.15;;;2.33;;
17854;SDS011;9053;53.358;6.382;2023-09-19T16:44:46;6.60;;;2.38;;
17854;SDS011;9053;53.358;6.382;2023-09-19T16:47:25;4.93;;;2.25;;
17854;SDS011;9053;53.358;6.382;2023-09-19T16:50:11;4.30;;;2.20;;
17854;SDS011;9053;53.358;6.382;2023-09-19T16:52:41;4.68;;;1.98;;
17854;SDS011;9053;53.358;6.382;2023-09-19T16:55:11;4.22;;;2.10;;
17854;SDS011;9053;53.358;6.382;2023-09-19T16:57:48;3.65;;;2.30;;
17854;SDS011;9053;53.358;6.382;2023-09-19T17:00:19;3.45;;;1.90;;
17854;SDS011;9053;53.358;6.382;2023-09-19T17:02:51;4.68;;;1.80;;
17854;SDS011;9053;53.358;6.382;2023-09-19T17:05:31;3.88;;;1.90;;
17854;SDS011;9053;53.358;6.382;2023-09-19T17:08:05;3.42;;;2.10;;
17854;SDS011;9053;53.358;6.382;2023-09-19T17:10:39;6.18;;;2.22;;
17854;SDS011;9053;53.358;6.382;2023-09-19T17:13:11;5.75;;;2.55;;
17854;SDS011;9053;53.358;6.382;2023-09-19T17:15:41;3.90;;;2.05;;
17854;SDS011;9053;53.358;6.382;2023-09-19T17:18:11;5.55;;;2.45;;
17854;SDS011;9053;53.358;6.382;2023-09-19T17:20:44;3.88;;;2.13;;
17854;SDS011;9053;53.358;6.382;2023-09-19T17:23:15;8.05;;;2.20;;
17854;SDS011;9053;53.358;6.382;2023-09-19T17:26:00;2.30;;;1.90;;
17854;SDS011;9053;53.358;6.382;2023-09-19T17:28:38;5.32;;;2.58;;
17854;SDS011;9053;53.358;6.382;2023-09-19T17:31:14;6.13;;;2.10;;
17854;SDS011;9053;53.358;6.382;2023-09-19T17:33:46;4.55;;;2.22;;
17854;SDS011;9053;53.358;6.382;2023-09-19T17:36:21;3.85;;;2.20;;
17854;SDS011;9053;53.358;6.382;2023-09-19T17:38:54;3.65;;;2.10;;
17854;SDS011;9053;53.358;6.382;2023-09-19T17:41:26;5.45;;;2.60;;
17854;SDS011;9053;53.358;6.382;2023-09-19T17:44:00;4.93;;;2.40;;
17854;SDS011;9053;53.358;6.382;2023-09-19T17:46:32;3.80;;;2.40;;
17854;SDS011;9053;53.358;6.382;2023-09-19T17:49:05;3.92;;;2.20;;
17854;SDS011;9053;53.358;6.382;2023-09-19T17:51:39;4.63;;;2.40;;
17854;SDS011;9053;53.358;6.382;2023-09-19T17:54:09;4.18;;;2.00;;
17854;SDS011;9053;53.358;6.382;2023-09-19T17:56:42;4.90;;;2.25;;
17854;SDS011;9053;53.358;6.382;2023-09-19T17:59:11;6.68;;;2.58;;